Burkett, TX

8:18 PM CDT on August 28, 2014 (GMT -0500)
Comanche | Change Station
CLOSE
Current Station
Airport
Location: Comanche,
Elevation: 1388 ft
Nearby Weather Stations

Elev 1388 ft 31.92 °N, 98.60 °W | Updated 23 minutes ago

Thunderstorm
Thunderstorm
90 °F
Feels Like 88 °F
N
8
Wind Variable Wind from SE
Gusts 11 mph

Today
High -- | Low -- °F
--% Chance of Precip.
Yesterday
High -- | Low -- °F
Precip. -- in
7:10 AM 8:06 PM
Waxing Crescent, 11% visible
Pressure 29.85 in
Visibility 10.0 miles
Clouds
Heat Index 88 °F
Dew Point 57 °F
Humidity 33%
Rainfall 0.00 in
Snow Depth Not available.
UV Not available.
Pollen 9.10 out of 12
Air Quality Not available.
Flu Activity Not available.
METAR KMKN 290055Z AUTO 14007KT 10SM 32/14 A2985 RMK AO2 T03210139

More Conditions Fewer Conditions

Pressure 29.85 in
Visibility 10.0 miles
Clouds
Heat Index 88 °F
Dew Point 57 °F
Humidity 33%
Rainfall 0.00 in
Snow Depth Not available.
UV Not available.
Pollen 9.10 out of 12
Air Quality Not available.
Flu Activity Not available.
METAR KMKN 290055Z AUTO 14007KT 10SM 32/14 A2985 RMK AO2 T03210139

More Conditions Fewer Conditions

10-Day Weather Forecast

Almanac

Astronomy

Aug. 28, 2014 Rise Set
Actual Time 7:10 AM CDT 8:06 PM CDT
Civil Twilight 6:45 AM CDT 8:31 PM CDT
Nautical Twilight 6:15 AM CDT 9:00 PM CDT
Astronomical Twilight 5:44 AM CDT 9:31 PM CDT
Moon 9:51 AM CDT (8/28) 9:45 PM CDT (8/28)
Length of Visible Light 13h 46m
Length of Day
12h 56m
Tomorrow will be 1m 52s shorter.
Waxing Crescent, 11% of the Moon is Illuminated
Today
Waxing Crescent
Sep 2
First Quarter
Sep 8
Full
Sep 15
Last Quarter
Sep 24
New

Today's Extremes

State Highs State Lows

Community

WunderPhotos

Upload Photos

1,748,126 photos uploaded!

Nearby

Snow Depth

Station Depth Elevation
No new snow has been reported.

Earthquake Activity

City Distance Mag. Time & Date
No recent earthquake activity has been reported nearby.
Minimum magnitude displayed is 2.5.

Coastal Water Temperatures

Place Temperature
No Stations Reporting

Nearby Weather Stations